sensor_id;sensor_type;location;lat;lon;timestamp;pressure;altitude;pressure_sealevel;temperature;humidity
45357;BME280;31092;51.924;21.448;2023-05-19T00:00:14;101382.16;;;9.33;100.00
45357;BME280;31092;51.924;21.448;2023-05-19T00:02:40;101389.25;;;9.34;100.00
45357;BME280;31092;51.924;21.448;2023-05-19T00:05:08;101392.78;;;9.34;100.00
45357;BME280;31092;51.924;21.448;2023-05-19T00:07:34;101390.09;;;9.34;100.00
45357;BME280;31092;51.924;21.448;2023-05-19T00:10:02;101390.09;;;9.34;100.00
45357;BME280;31092;51.924;21.448;2023-05-19T00:12:27;101385.69;;;9.33;100.00
45357;BME280;31092;51.924;21.448;2023-05-19T00:14:53;101382.16;;;9.33;100.00
45357;BME280;31092;51.924;21.448;2023-05-19T00:17:18;101387.66;;;9.31;100.00
45357;BME280;31092;51.924;21.448;2023-05-19T00:19:44;101388.66;;;9.30;100.00
45357;BME280;31092;51.924;21.448;2023-05-19T00:22:10;101384.25;;;9.29;100.00
45357;BME280;31092;51.924;21.448;2023-05-19T00:24:36;101375.34;;;9.29;100.00
45357;BME280;31092;51.924;21.448;2023-05-19T00:27:01;101374.47;;;9.28;100.00
45357;BME280;31092;51.924;21.448;2023-05-19T00:29:27;101375.47;;;9.27;100.00
45357;BME280;31092;51.924;21.448;2023-05-19T00:31:52;101375.59;;;9.26;100.00
45357;BME280;31092;51.924;21.448;2023-05-19T00:34:18;101377.44;;;9.25;100.00
45357;BME280;31092;51.924;21.448;2023-05-19T00:36:43;101380.97;;;9.26;100.00
45357;BME280;31092;51.924;21.448;2023-05-19T00:39:08;101374.88;;;9.24;100.00
45357;BME280;31092;51.924;21.448;2023-05-19T00:41:34;101369.47;;;9.24;100.00
45357;BME280;31092;51.924;21.448;2023-05-19T00:43:59;101374.00;;;9.23;100.00
45357;BME280;31092;51.924;21.448;2023-05-19T00:46:24;101368.78;;;9.22;100.00
45357;BME280;31092;51.924;21.448;2023-05-19T00:48:50;101362.53;;;9.21;100.00
45357;BME280;31092;51.924;21.448;2023-05-19T00:51:15;101368.78;;;9.22;100.00
45357;BME280;31092;51.924;21.448;2023-05-19T00:53:41;101363.50;;;9.20;100.00
45357;BME280;31092;51.924;21.448;2023-05-19T00:56:07;101364.50;;;9.19;100.00
45357;BME280;31092;51.924;21.448;2023-05-19T00:58:33;101363.66;;;9.19;100.00
45357;BME280;31092;51.924;21.448;2023-05-19T01:00:59;101364.50;;;9.19;100.00
45357;BME280;31092;51.924;21.448;2023-05-19T01:03:30;101367.19;;;9.19;100.00
45357;BME280;31092;51.924;21.448;2023-05-19T01:05:56;101368.91;;;9.20;100.00
45357;BME280;31092;51.924;21.448;2023-05-19T01:08:26;101371.56;;;9.20;100.00
45357;BME280;31092;51.924;21.448;2023-05-19T01:10:51;101364.50;;;9.19;100.00
45357;BME280;31092;51.924;21.448;2023-05-19T01:13:16;101366.34;;;9.19;100.00
45357;BME280;31092;51.924;21.448;2023-05-19T01:15:52;101366.34;;;9.19;100.00
45357;BME280;31092;51.924;21.448;2023-05-19T01:18:23;101363.66;;;9.19;100.00
45357;BME280;31092;51.924;21.448;2023-05-19T01:21:03;101363.78;;;9.17;100.00
45357;BME280;31092;51.924;21.448;2023-05-19T01:26:08;101363.78;;;9.17;100.00
45357;BME280;31092;51.924;21.448;2023-05-19T01:28:47;101360.13;;;9.18;100.00
45357;BME280;31092;51.924;21.448;2023-05-19T01:31:18;101360.13;;;9.18;100.00
45357;BME280;31092;51.924;21.448;2023-05-19T01:33:46;101359.25;;;9.18;100.00
45357;BME280;31092;51.924;21.448;2023-05-19T01:36:13;101352.06;;;9.18;100.00
45357;BME280;31092;51.924;21.448;2023-05-19T01:38:39;101355.59;;;9.19;100.00
45357;BME280;31092;51.924;21.448;2023-05-19T01:41:05;101352.91;;;9.19;100.00
45357;BME280;31092;51.924;21.448;2023-05-19T01:43:30;101352.06;;;9.18;100.00
45357;BME280;31092;51.924;21.448;2023-05-19T01:45:56;101351.19;;;9.18;100.00
45357;BME280;31092;51.924;21.448;2023-05-19T01:48:22;101355.72;;;9.17;100.00
45357;BME280;31092;51.924;21.448;2023-05-19T01:50:48;101350.31;;;9.17;100.00
45357;BME280;31092;51.924;21.448;2023-05-19T01:53:13;101353.88;;;9.18;100.00
45357;BME280;31092;51.924;21.448;2023-05-19T01:55:43;101352.91;;;9.19;100.00
45357;BME280;31092;51.924;21.448;2023-05-19T02:00:56;101347.53;;;9.19;100.00
45357;BME280;31092;51.924;21.448;2023-05-19T02:06:17;101347.63;;;9.17;100.00
45357;BME280;31092;51.924;21.448;2023-05-19T02:08:50;101337.72;;;9.18;100.00
45357;BME280;31092;51.924;21.448;2023-05-19T02:11:22;101343.13;;;9.18;100.00
45357;BME280;31092;51.924;21.448;2023-05-19T02:13:49;101345.81;;;9.18;100.00
45357;BME280;31092;51.924;21.448;2023-05-19T02:16:18;101343.25;;;9.16;100.00
45357;BME280;31092;51.924;21.448;2023-05-19T02:18:44;101348.63;;;9.16;100.00
45357;BME280;31092;51.924;21.448;2023-05-19T02:21:10;101340.56;;;9.16;100.00
45357;BME280;31092;51.924;21.448;2023-05-19T02:23:38;101347.63;;;9.17;100.00
45357;BME280;31092;51.924;21.448;2023-05-19T02:26:03;101344.25;;;9.15;100.00
45357;BME280;31092;51.924;21.448;2023-05-19T02:28:29;101346.94;;;9.15;100.00
45357;BME280;31092;51.924;21.448;2023-05-19T02:30:54;101344.50;;;9.12;100.00
45357;BME280;31092;51.924;21.448;2023-05-19T02:33:19;101347.19;;;9.12;100.00
45357;BME280;31092;51.924;21.448;2023-05-19T02:35:48;101347.31;;;9.10;100.00
45357;BME280;31092;51.924;21.448;2023-05-19T02:38:13;101347.31;;;9.10;100.00
45357;BME280;31092;51.924;21.448;2023-05-19T02:40:39;101346.44;;;9.10;100.00
45357;BME280;31092;51.924;21.448;2023-05-19T02:43:04;101345.59;;;9.09;100.00
45357;BME280;31092;51.924;21.448;2023-05-19T02:45:30;101347.44;;;9.09;100.00
45357;BME280;31092;51.924;21.448;2023-05-19T02:47:55;101341.22;;;9.08;100.00
45357;BME280;31092;51.924;21.448;2023-05-19T02:50:20;101351.97;;;9.08;100.00
45357;BME280;31092;51.924;21.448;2023-05-19T02:52:46;101346.72;;;9.07;100.00
45357;BME280;31092;51.924;21.448;2023-05-19T02:55:12;101350.28;;;9.07;100.00
45357;BME280;31092;51.924;21.448;2023-05-19T02:57:41;101345.75;;;9.08;100.00
45357;BME280;31092;51.924;21.448;2023-05-19T03:00:06;101346.59;;;9.08;100.00
45357;BME280;31092;51.924;21.448;2023-05-19T03:02:32;101348.28;;;9.09;100.00
45357;BME280;31092;51.924;21.448;2023-05-19T03:04:58;101342.06;;;9.09;100.00
45357;BME280;31092;51.924;21.448;2023-05-19T03:07:25;101345.50;;;9.11;100.00
45357;BME280;31092;51.924;21.448;2023-05-19T03:09:51;101342.81;;;9.11;100.00
45357;BME280;31092;51.924;21.448;2023-05-19T03:12:16;101349.03;;;9.11;100.00
45357;BME280;31092;51.924;21.448;2023-05-19T03:14:42;101349.03;;;9.11;100.00
45357;BME280;31092;51.924;21.448;2023-05-19T03:17:07;101353.41;;;9.13;100.00
45357;BME280;31092;51.924;21.448;2023-05-19T03:19:34;101352.41;;;9.14;100.00
45357;BME280;31092;51.924;21.448;2023-05-19T03:21:59;101355.09;;;9.14;100.00
45357;BME280;31092;51.924;21.448;2023-05-19T03:24:24;101345.22;;;9.14;100.00
45357;BME280;31092;51.924;21.448;2023-05-19T03:26:50;101345.09;;;9.16;100.00
45357;BME280;31092;51.924;21.448;2023-05-19T03:29:15;101350.47;;;9.16;100.00
45357;BME280;31092;51.924;21.448;2023-05-19T03:31:41;101357.44;;;9.18;100.00
45357;BME280;31092;51.924;21.448;2023-05-19T03:34:06;101349.38;;;9.18;100.00
45357;BME280;31092;51.924;21.448;2023-05-19T03:36:31;101353.59;;;9.21;100.00
45357;BME280;31092;51.924;21.448;2023-05-19T03:39:03;101354.47;;;9.21;100.00
45357;BME280;31092;51.924;21.448;2023-05-19T03:41:30;101341.00;;;9.21;100.00
45357;BME280;31092;51.924;21.448;2023-05-19T03:43:55;101360.56;;;9.23;100.00
45357;BME280;31092;51.924;21.448;2023-05-19T03:46:21;101355.94;;;9.25;100.00
45357;BME280;31092;51.924;21.448;2023-05-19T03:48:46;101357.63;;;9.26;100.00
45357;BME280;31092;51.924;21.448;2023-05-19T03:51:11;101352.97;;;9.28;100.00
45357;BME280;31092;51.924;21.448;2023-05-19T03:53:37;101355.66;;;9.28;100.00
45357;BME280;31092;51.924;21.448;2023-05-19T03:56:03;101364.44;;;9.30;100.00
45357;BME280;31092;51.924;21.448;2023-05-19T03:58:28;101356.22;;;9.32;100.00
45357;BME280;31092;51.924;21.448;2023-05-19T04:00:54;101359.66;;;9.34;100.00
45357;BME280;31092;51.924;21.448;2023-05-19T04:03:19;101364.03;;;9.35;100.00
45357;BME280;31092;51.924;21.448;2023-05-19T04:05:45;101359.41;;;9.37;100.00
45357;BME280;31092;51.924;21.448;2023-05-19T04:08:10;101365.38;;;9.41;100.00
45357;BME280;31092;51.924;21.448;2023-05-19T04:10:35;101362.28;;;9.45;100.00
45357;BME280;31092;51.924;21.448;2023-05-19T04:13:01;101363.72;;;9.49;100.00
45357;BME280;31092;51.924;21.448;2023-05-19T04:15:26;101363.59;;;9.51;100.00
45357;BME280;31092;51.924;21.448;2023-05-19T04:17:51;101362.34;;;9.55;100.00
45357;BME280;31092;51.924;21.448;2023-05-19T04:20:17;101364.78;;;9.58;100.00
45357;BME280;31092;51.924;21.448;2023-05-19T04:22:42;101356.47;;;9.61;100.00
45357;BME280;31092;51.924;21.448;2023-05-19T04:25:07;101361.56;;;9.64;100.00
45357;BME280;31092;51.924;21.448;2023-05-19T04:27:33;101359.59;;;9.66;100.00
45357;BME280;31092;51.924;21.448;2023-05-19T04:30:03;101362.75;;;9.71;100.00
45357;BME280;31092;51.924;21.448;2023-05-19T04:32:28;101366.88;;;9.75;100.00
45357;BME280;31092;51.924;21.448;2023-05-19T04:34:55;101362.78;;;9.81;100.00
45357;BME280;31092;51.924;21.448;2023-05-19T04:37:20;101358.97;;;9.83;100.00
45357;BME280;31092;51.924;21.448;2023-05-19T04:39:46;101367.63;;;9.87;100.00
45357;BME280;31092;51.924;21.448;2023-05-19T04:42:12;101365.97;;;9.96;100.00
45357;BME280;31092;51.924;21.448;2023-05-19T04:44:37;101365.44;;;10.02;100.00
45357;BME280;31092;51.924;21.448;2023-05-19T04:47:06;101367.03;;;10.04;100.00
45357;BME280;31092;51.924;21.448;2023-05-19T04:49:33;101365.59;;;10.10;100.00
45357;BME280;31092;51.924;21.448;2023-05-19T04:52:03;101361.53;;;10.16;100.00
45357;BME280;31092;51.924;21.448;2023-05-19T04:54:28;101363.44;;;10.25;100.00
45357;BME280;31092;51.924;21.448;2023-05-19T04:56:53;101364.38;;;10.24;100.00
45357;BME280;31092;51.924;21.448;2023-05-19T04:59:20;101364.38;;;10.24;100.00
45357;BME280;31092;51.924;21.448;2023-05-19T05:01:46;101364.88;;;10.29;100.00
45357;BME280;31092;51.924;21.448;2023-05-19T05:04:11;101288.47;;;9.90;100.00
45357;BME280;31092;51.924;21.448;2023-05-19T05:06:44;101361.91;;;10.32;100.00
45357;BME280;31092;51.924;21.448;2023-05-19T05:09:15;101357.97;;;10.36;100.00
45357;BME280;31092;51.924;21.448;2023-05-19T05:11:41;101359.81;;;10.45;100.00
45357;BME280;31092;51.924;21.448;2023-05-19T05:14:07;101359.84;;;10.55;100.00
45357;BME280;31092;51.924;21.448;2023-05-19T05:16:33;101365.69;;;10.60;100.00
45357;BME280;31092;51.924;21.448;2023-05-19T05:18:58;101366.25;;;10.64;100.00
45357;BME280;31092;51.924;21.448;2023-05-19T05:21:24;101371.06;;;10.70;100.00
45357;BME280;31092;51.924;21.448;2023-05-19T05:23:50;101363.56;;;10.73;100.00
45357;BME280;31092;51.924;21.448;2023-05-19T05:26:16;101368.13;;;10.83;100.00
45357;BME280;31092;51.924;21.448;2023-05-19T05:28:47;101350.69;;;10.87;100.00
45357;BME280;31092;51.924;21.448;2023-05-19T05:31:12;101353.53;;;10.85;100.00
45357;BME280;31092;51.924;21.448;2023-05-19T05:33:38;101357.75;;;10.88;100.00
45357;BME280;31092;51.924;21.448;2023-05-19T05:36:03;101364.72;;;10.90;100.00
45357;BME280;31092;51.924;21.448;2023-05-19T05:38:29;101362.75;;;10.92;100.00
45357;BME280;31092;51.924;21.448;2023-05-19T05:40:54;101363.44;;;10.94;100.00
45357;BME280;31092;51.924;21.448;2023-05-19T05:43:20;101367.00;;;10.95;100.00
45357;BME280;31092;51.924;21.448;2023-05-19T05:45:45;101364.19;;;10.96;100.00
45357;BME280;31092;51.924;21.448;2023-05-19T05:48:10;101368.69;;;11.06;100.00
45357;BME280;31092;51.924;21.448;2023-05-19T05:50:36;101364.47;;;11.03;100.00
45357;BME280;31092;51.924;21.448;2023-05-19T05:53:01;101360.88;;;11.02;100.00
45357;BME280;31092;51.924;21.448;2023-05-19T05:55:27;101369.13;;;11.01;100.00
45357;BME280;31092;51.924;21.448;2023-05-19T05:57:53;101366.03;;;10.96;100.00
45357;BME280;31092;51.924;21.448;2023-05-19T06:00:21;101365.56;;;10.91;100.00
45357;BME280;31092;51.924;21.448;2023-05-19T06:02:48;101360.19;;;10.91;100.00
45357;BME280;31092;51.924;21.448;2023-05-19T06:05:14;101367.00;;;10.95;100.00
45357;BME280;31092;51.924;21.448;2023-05-19T06:07:40;101354.50;;;10.94;100.00
45357;BME280;31092;51.924;21.448;2023-05-19T06:10:05;101355.53;;;10.93;100.00
45357;BME280;31092;51.924;21.448;2023-05-19T06:12:31;101357.22;;;10.94;100.00
45357;BME280;31092;51.924;21.448;2023-05-19T06:14:56;101363.44;;;10.94;100.00
45357;BME280;31092;51.924;21.448;2023-05-19T06:17:22;101366.16;;;10.94;100.00
45357;BME280;31092;51.924;21.448;2023-05-19T06:19:47;101367.00;;;10.95;100.00
45357;BME280;31092;51.924;21.448;2023-05-19T06:22:13;101364.03;;;10.98;100.00
45357;BME280;31092;51.924;21.448;2023-05-19T06:24:38;101360.19;;;11.00;100.00
45357;BME280;31092;51.924;21.448;2023-05-19T06:27:03;101361.47;;;11.06;100.00
45357;BME280;31092;51.924;21.448;2023-05-19T06:29:29;101351.41;;;11.08;100.00
45357;BME280;31092;51.924;21.448;2023-05-19T06:31:54;101361.91;;;11.11;100.00
45357;BME280;31092;51.924;21.448;2023-05-19T06:34:20;101357.66;;;11.18;100.00
45357;BME280;31092;51.924;21.448;2023-05-19T06:36:45;101367.44;;;11.29;100.00
45357;BME280;31092;51.924;21.448;2023-05-19T06:39:10;101360.03;;;11.41;100.00
45357;BME280;31092;51.924;21.448;2023-05-19T06:41:36;101359.03;;;11.51;100.00
45357;BME280;31092;51.924;21.448;2023-05-19T06:44:02;101365.25;;;11.62;100.00
45357;BME280;31092;51.924;21.448;2023-05-19T06:46:27;101367.22;;;11.69;100.00
45357;BME280;31092;51.924;21.448;2023-05-19T06:48:53;101365.38;;;11.70;100.00
45357;BME280;31092;51.924;21.448;2023-05-19T06:51:27;101369.66;;;11.63;100.00
45357;BME280;31092;51.924;21.448;2023-05-19T06:53:53;101365.41;;;11.60;100.00
45357;BME280;31092;51.924;21.448;2023-05-19T06:56:18;101364.00;;;11.56;100.00
45357;BME280;31092;51.924;21.448;2023-05-19T06:58:44;101372.50;;;11.61;100.00
45357;BME280;31092;51.924;21.448;2023-05-19T07:01:09;101366.94;;;11.63;100.00
45357;BME280;31092;51.924;21.448;2023-05-19T07:03:35;101363.56;;;11.61;100.00
45357;BME280;31092;51.924;21.448;2023-05-19T07:06:00;101367.56;;;11.57;100.00
45357;BME280;31092;51.924;21.448;2023-05-19T07:08:29;101366.72;;;11.56;100.00
45357;BME280;31092;51.924;21.448;2023-05-19T07:10:55;101365.53;;;11.59;100.00
45357;BME280;31092;51.924;21.448;2023-05-19T07:13:21;101371.38;;;11.64;100.00
45357;BME280;31092;51.924;21.448;2023-05-19T07:15:46;101363.28;;;11.64;100.00
45357;BME280;31092;51.924;21.448;2023-05-19T07:18:13;101367.38;;;11.68;100.00
45357;BME280;31092;51.924;21.448;2023-05-19T07:20:38;101371.66;;;11.70;100.00
45357;BME280;31092;51.924;21.448;2023-05-19T07:23:04;101362.00;;;11.68;100.00
45357;BME280;31092;51.924;21.448;2023-05-19T07:25:29;101365.97;;;11.64;100.00
45357;BME280;31092;51.924;21.448;2023-05-19T07:27:55;101360.28;;;11.67;100.00
45357;BME280;31092;51.924;21.448;2023-05-19T07:30:21;101368.63;;;11.73;100.00
45357;BME280;31092;51.924;21.448;2023-05-19T07:32:46;101359.66;;;11.83;100.00
45357;BME280;31092;51.924;21.448;2023-05-19T07:35:11;101369.06;;;11.88;100.00
45357;BME280;31092;51.924;21.448;2023-05-19T07:37:37;101360.25;;;11.86;100.00
45357;BME280;31092;51.924;21.448;2023-05-19T07:40:02;101360.66;;;11.91;100.00
45357;BME280;31092;51.924;21.448;2023-05-19T07:42:28;101362.09;;;11.95;100.00
45357;BME280;31092;51.924;21.448;2023-05-19T07:44:53;101365.63;;;11.96;100.00
45357;BME280;31092;51.924;21.448;2023-05-19T07:47:19;101364.78;;;11.95;100.00
45357;BME280;31092;51.924;21.448;2023-05-19T07:49:44;101366.47;;;11.96;100.00
45357;BME280;31092;51.924;21.448;2023-05-19T07:52:10;101359.22;;;11.97;100.00
45357;BME280;31092;51.924;21.448;2023-05-19T07:54:35;101358.66;;;11.93;100.00
45357;BME280;31092;51.924;21.448;2023-05-19T07:57:00;101354.41;;;11.91;100.00
45357;BME280;31092;51.924;21.448;2023-05-19T07:59:26;101351.41;;;11.94;100.00
45357;BME280;31092;51.924;21.448;2023-05-19T08:01:52;101352.25;;;11.94;100.00
45357;BME280;31092;51.924;21.448;2023-05-19T08:04:17;101349.28;;;11.97;100.00
45357;BME280;31092;51.924;21.448;2023-05-19T08:06:42;101350.53;;;12.03;100.00
45357;BME280;31092;51.924;21.448;2023-05-19T08:09:13;101348.53;;;12.05;100.00
45357;BME280;31092;51.924;21.448;2023-05-19T08:11:50;101347.38;;;12.08;100.00
45357;BME280;31092;51.924;21.448;2023-05-19T08:14:16;101338.84;;;12.12;100.00
45357;BME280;31092;51.924;21.448;2023-05-19T08:16:41;101345.25;;;12.11;100.00
45357;BME280;31092;51.924;21.448;2023-05-19T08:19:08;101340.84;;;12.10;100.00
45357;BME280;31092;51.924;21.448;2023-05-19T08:21:33;101346.09;;;12.12;100.00
45357;BME280;31092;51.924;21.448;2023-05-19T08:24:00;101349.50;;;12.14;100.00
45357;BME280;31092;51.924;21.448;2023-05-19T08:26:26;101346.34;;;12.18;100.00
45357;BME280;31092;51.924;21.448;2023-05-19T08:28:51;101349.03;;;12.18;100.00
45357;BME280;31092;51.924;21.448;2023-05-19T08:31:17;101340.56;;;12.13;100.00
45357;BME280;31092;51.924;21.448;2023-05-19T08:33:43;101357.91;;;12.11;100.00
45357;BME280;31092;51.924;21.448;2023-05-19T08:36:08;101355.88;;;12.13;100.00
45357;BME280;31092;51.924;21.448;2023-05-19T08:38:33;101354.34;;;12.10;100.00
45357;BME280;31092;51.924;21.448;2023-05-19T08:40:59;101363.13;;;12.12;100.00
45357;BME280;31092;51.924;21.448;2023-05-19T08:43:24;101361.00;;;12.16;100.00
45357;BME280;31092;51.924;21.448;2023-05-19T08:45:50;101358.59;;;12.13;100.00
45357;BME280;31092;51.924;21.448;2023-05-19T08:48:18;101362.00;;;12.15;100.00
45357;BME280;31092;51.924;21.448;2023-05-19T08:50:45;101349.75;;;12.20;100.00
45357;BME280;31092;51.924;21.448;2023-05-19T08:53:22;101353.94;;;12.33;100.00
45357;BME280;31092;51.924;21.448;2023-05-19T08:55:58;101351.13;;;12.52;100.00
45357;BME280;31092;51.924;21.448;2023-05-19T08:58:25;101344.22;;;12.67;100.00
45357;BME280;31092;51.924;21.448;2023-05-19T09:00:52;101351.41;;;12.77;100.00
45357;BME280;31092;51.924;21.448;2023-05-19T09:03:17;101348.63;;;12.86;100.00
45357;BME280;31092;51.924;21.448;2023-05-19T09:05:44;101345.56;;;12.81;100.00
45357;BME280;31092;51.924;21.448;2023-05-19T09:08:10;101345.56;;;12.81;100.00
45357;BME280;31092;51.924;21.448;2023-05-19T09:10:35;101346.66;;;12.88;100.00
45357;BME280;31092;51.924;21.448;2023-05-19T09:13:01;101336.06;;;12.95;100.00
45357;BME280;31092;51.924;21.448;2023-05-19T09:15:26;101338.28;;;13.00;100.00
45357;BME280;31092;51.924;21.448;2023-05-19T09:18:13;101348.81;;;13.03;100.00
45357;BME280;31092;51.924;21.448;2023-05-19T09:20:39;101342.75;;;12.91;100.00
45357;BME280;31092;51.924;21.448;2023-05-19T09:23:05;101337.75;;;12.78;100.00
45357;BME280;31092;51.924;21.448;2023-05-19T09:25:31;101343.00;;;12.80;100.00
45357;BME280;31092;51.924;21.448;2023-05-19T09:27:57;101344.78;;;12.89;100.00
45357;BME280;31092;51.924;21.448;2023-05-19T09:30:22;101340.84;;;13.01;100.00
45357;BME280;31092;51.924;21.448;2023-05-19T09:32:47;101337.81;;;13.04;100.00
45357;BME280;31092;51.924;21.448;2023-05-19T09:35:13;101338.38;;;13.08;100.00
45357;BME280;31092;51.924;21.448;2023-05-19T09:37:44;101340.16;;;13.17;100.00
45357;BME280;31092;51.924;21.448;2023-05-19T09:40:12;101337.81;;;13.22;100.00
45357;BME280;31092;51.924;21.448;2023-05-19T09:42:37;101339.94;;;13.28;100.00
45357;BME280;31092;51.924;21.448;2023-05-19T09:45:03;101341.47;;;13.31;100.00
45357;BME280;31092;51.924;21.448;2023-05-19T09:47:33;101340.00;;;13.36;100.00
45357;BME280;31092;51.924;21.448;2023-05-19T09:49:58;101339.50;;;13.41;100.00
45357;BME280;31092;51.924;21.448;2023-05-19T09:52:23;101350.03;;;13.44;100.00
45357;BME280;31092;51.924;21.448;2023-05-19T09:54:49;101344.59;;;13.44;100.00
45357;BME280;31092;51.924;21.448;2023-05-19T09:57:15;101343.41;;;13.38;100.00
45357;BME280;31092;51.924;21.448;2023-05-19T09:59:41;101344.31;;;13.29;100.00
45357;BME280;31092;51.924;21.448;2023-05-19T10:02:09;101337.38;;;13.27;100.00
45357;BME280;31092;51.924;21.448;2023-05-19T10:04:35;101348.19;;;13.27;100.00
45357;BME280;31092;51.924;21.448;2023-05-19T10:07:01;101348.19;;;13.27;100.00
45357;BME280;31092;51.924;21.448;2023-05-19T10:09:29;101343.69;;;13.17;100.00
45357;BME280;31092;51.924;21.448;2023-05-19T10:11:55;101339.31;;;13.16;100.00
45357;BME280;31092;51.924;21.448;2023-05-19T10:14:21;101340.50;;;13.22;100.00
45357;BME280;31092;51.924;21.448;2023-05-19T10:16:49;101339.41;;;13.25;100.00
45357;BME280;31092;51.924;21.448;2023-05-19T10:19:15;101338.25;;;13.27;100.00
45357;BME280;31092;51.924;21.448;2023-05-19T10:21:40;101339.75;;;13.30;100.00
45357;BME280;31092;51.924;21.448;2023-05-19T10:24:06;101338.06;;;13.29;100.00
45357;BME280;31092;51.924;21.448;2023-05-19T10:26:31;101340.25;;;13.25;100.00
45357;BME280;31092;51.924;21.448;2023-05-19T10:28:57;101337.53;;;13.25;100.00
45357;BME280;31092;51.924;21.448;2023-05-19T10:31:23;101328.94;;;13.30;100.00
45357;BME280;31092;51.924;21.448;2023-05-19T10:36:54;101330.94;;;13.46;100.00
45357;BME280;31092;51.924;21.448;2023-05-19T10:39:28;101331.91;;;13.45;100.00
45357;BME280;31092;51.924;21.448;2023-05-19T10:47:35;101328.25;;;13.28;100.00
45357;BME280;31092;51.924;21.448;2023-05-19T10:50:01;101324.00;;;13.25;100.00
45357;BME280;31092;51.924;21.448;2023-05-19T10:52:30;101331.66;;;13.30;100.00
45357;BME280;31092;51.924;21.448;2023-05-19T10:55:01;101333.69;;;13.28;100.00
45357;BME280;31092;51.924;21.448;2023-05-19T10:57:29;101332.41;;;13.22;100.00
45357;BME280;31092;51.924;21.448;2023-05-19T10:59:59;101327.28;;;13.19;100.00
45357;BME280;31092;51.924;21.448;2023-05-19T11:02:51;101334.22;;;13.31;100.00
45357;BME280;31092;51.924;21.448;2023-05-19T11:05:36;101329.88;;;13.38;100.00
45357;BME280;31092;51.924;21.448;2023-05-19T11:08:04;101326.84;;;13.41;100.00
45357;BME280;31092;51.924;21.448;2023-05-19T11:10:33;101325.03;;;13.50;100.00
45357;BME280;31092;51.924;21.448;2023-05-19T11:13:02;101322.91;;;13.62;100.00
45357;BME280;31092;51.924;21.448;2023-05-19T11:15:28;101323.94;;;13.61;100.00
45357;BME280;31092;51.924;21.448;2023-05-19T11:17:54;101322.56;;;13.57;100.00
45357;BME280;31092;51.924;21.448;2023-05-19T11:20:22;101327.13;;;13.56;100.00
45357;BME280;31092;51.924;21.448;2023-05-19T11:25:46;101319.22;;;13.63;100.00
45357;BME280;31092;51.924;21.448;2023-05-19T11:28:30;101327.59;;;13.78;100.00
45357;BME280;31092;51.924;21.448;2023-05-19T11:30:56;101324.28;;;13.92;100.00
45357;BME280;31092;51.924;21.448;2023-05-19T11:33:23;101334.50;;;13.98;100.00
45357;BME280;31092;51.924;21.448;2023-05-19T11:35:55;101321.13;;;14.05;100.00
45357;BME280;31092;51.924;21.448;2023-05-19T11:38:25;101325.53;;;14.06;100.00
45357;BME280;31092;51.924;21.448;2023-05-19T11:40:56;101330.06;;;13.97;100.00
45357;BME280;31092;51.924;21.448;2023-05-19T11:43:22;101325.84;;;13.95;100.00
45357;BME280;31092;51.924;21.448;2023-05-19T11:45:48;101317.53;;;13.96;100.00
45357;BME280;31092;51.924;21.448;2023-05-19T11:48:14;101323.16;;;14.03;100.00
45357;BME280;31092;51.924;21.448;2023-05-19T11:50:40;101322.97;;;14.04;100.00
45357;BME280;31092;51.924;21.448;2023-05-19T11:53:05;101320.75;;;14.00;100.00
45357;BME280;31092;51.924;21.448;2023-05-19T11:55:31;101320.75;;;14.00;100.00
45357;BME280;31092;51.924;21.448;2023-05-19T11:57:57;101315.69;;;14.05;100.00
45357;BME280;31092;51.924;21.448;2023-05-19T12:00:23;101320.78;;;14.08;100.00
45357;BME280;31092;51.924;21.448;2023-05-19T12:02:49;101322.16;;;14.12;100.00
45357;BME280;31092;51.924;21.448;2023-05-19T12:05:18;101318.47;;;14.13;100.00
45357;BME280;31092;51.924;21.448;2023-05-19T12:07:43;101322.34;;;14.10;100.00
45357;BME280;31092;51.924;21.448;2023-05-19T12:10:09;101307.78;;;14.11;100.00
45357;BME280;31092;51.924;21.448;2023-05-19T12:12:34;101323.03;;;14.12;100.00
45357;BME280;31092;51.924;21.448;2023-05-19T12:15:01;101324.84;;;14.04;100.00
45357;BME280;31092;51.924;21.448;2023-05-19T12:17:26;101329.91;;;13.99;100.00
45357;BME280;31092;51.924;21.448;2023-05-19T12:19:52;101322.59;;;13.91;100.00
45357;BME280;31092;51.924;21.448;2023-05-19T12:22:18;101332.94;;;13.96;100.00
45357;BME280;31092;51.924;21.448;2023-05-19T12:24:43;101329.06;;;13.98;100.00
45357;BME280;31092;51.924;21.448;2023-05-19T12:27:10;101330.56;;;13.93;100.00
45357;BME280;31092;51.924;21.448;2023-05-19T12:29:39;101329.19;;;13.88;100.00
45357;BME280;31092;51.924;21.448;2023-05-19T12:32:07;101331.72;;;13.90;100.00
45357;BME280;31092;51.924;21.448;2023-05-19T12:34:36;101328.03;;;13.91;100.00
45357;BME280;31092;51.924;21.448;2023-05-19T12:37:02;101326.16;;;13.92;100.00
45357;BME280;31092;51.924;21.448;2023-05-19T12:39:28;101326.81;;;13.94;100.00
45357;BME280;31092;51.924;21.448;2023-05-19T12:41:59;101319.91;;;13.99;100.00
45357;BME280;31092;51.924;21.448;2023-05-19T12:44:25;101328.06;;;13.99;100.00
45357;BME280;31092;51.924;21.448;2023-05-19T12:46:52;101331.59;;;14.00;100.00
45357;BME280;31092;51.924;21.448;2023-05-19T12:49:17;101327.19;;;13.99;100.00